sensor_id;sensor_type;location;lat;lon;timestamp;P1;durP1;ratioP1;P2;durP2;ratioP2
8714;SDS011;4394;51.208;8.904;2022-07-19T00:01:49;5.60;;;2.07;;
8714;SDS011;4394;51.208;8.904;2022-07-19T00:04:37;2.40;;;2.20;;
8714;SDS011;4394;51.208;8.904;2022-07-19T00:07:25;3.10;;;2.30;;
8714;SDS011;4394;51.208;8.904;2022-07-19T00:10:15;3.37;;;2.40;;
8714;SDS011;4394;51.208;8.904;2022-07-19T00:13:05;3.70;;;1.97;;
8714;SDS011;4394;51.208;8.904;2022-07-19T00:15:53;3.10;;;2.10;;
8714;SDS011;4394;51.208;8.904;2022-07-19T00:18:42;4.10;;;2.20;;
8714;SDS011;4394;51.208;8.904;2022-07-19T00:21:30;2.50;;;2.30;;
8714;SDS011;4394;51.208;8.904;2022-07-19T00:24:19;4.13;;;2.23;;
8714;SDS011;4394;51.208;8.904;2022-07-19T00:27:08;5.67;;;2.63;;
8714;SDS011;4394;51.208;8.904;2022-07-19T00:29:56;3.93;;;2.27;;
8714;SDS011;4394;51.208;8.904;2022-07-19T00:32:44;2.50;;;2.30;;
8714;SDS011;4394;51.208;8.904;2022-07-19T00:35:32;3.23;;;2.00;;
8714;SDS011;4394;51.208;8.904;2022-07-19T00:38:20;2.60;;;2.20;;
8714;SDS011;4394;51.208;8.904;2022-07-19T00:41:07;2.53;;;2.07;;
8714;SDS011;4394;51.208;8.904;2022-07-19T00:43:57;2.37;;;2.13;;
8714;SDS011;4394;51.208;8.904;2022-07-19T00:46:45;2.40;;;2.10;;
8714;SDS011;4394;51.208;8.904;2022-07-19T00:49:33;2.97;;;2.30;;
8714;SDS011;4394;51.208;8.904;2022-07-19T00:52:21;3.43;;;2.03;;
8714;SDS011;4394;51.208;8.904;2022-07-19T00:55:12;3.70;;;2.50;;
8714;SDS011;4394;51.208;8.904;2022-07-19T00:58:01;2.47;;;2.27;;
8714;SDS011;4394;51.208;8.904;2022-07-19T01:00:51;2.97;;;2.13;;
8714;SDS011;4394;51.208;8.904;2022-07-19T01:03:39;2.33;;;2.13;;
8714;SDS011;4394;51.208;8.904;2022-07-19T01:06:28;2.73;;;2.53;;
8714;SDS011;4394;51.208;8.904;2022-07-19T01:09:16;2.70;;;2.43;;
8714;SDS011;4394;51.208;8.904;2022-07-19T01:12:04;2.47;;;2.27;;
8714;SDS011;4394;51.208;8.904;2022-07-19T01:14:55;3.70;;;2.40;;
8714;SDS011;4394;51.208;8.904;2022-07-19T01:17:44;3.60;;;2.20;;
8714;SDS011;4394;51.208;8.904;2022-07-19T01:20:33;3.10;;;2.80;;
8714;SDS011;4394;51.208;8.904;2022-07-19T01:23:23;2.83;;;2.00;;
8714;SDS011;4394;51.208;8.904;2022-07-19T01:26:11;2.97;;;2.30;;
8714;SDS011;4394;51.208;8.904;2022-07-19T01:28:59;3.10;;;2.40;;
8714;SDS011;4394;51.208;8.904;2022-07-19T01:31:47;4.53;;;2.57;;
8714;SDS011;4394;51.208;8.904;2022-07-19T01:34:34;2.60;;;2.40;;
8714;SDS011;4394;51.208;8.904;2022-07-19T01:37:23;3.57;;;2.37;;
8714;SDS011;4394;51.208;8.904;2022-07-19T01:40:13;3.13;;;2.53;;
8714;SDS011;4394;51.208;8.904;2022-07-19T01:43:02;3.70;;;2.47;;
8714;SDS011;4394;51.208;8.904;2022-07-19T01:45:50;2.90;;;2.60;;
8714;SDS011;4394;51.208;8.904;2022-07-19T01:48:39;2.93;;;2.50;;
8714;SDS011;4394;51.208;8.904;2022-07-19T01:51:27;2.23;;;2.10;;
8714;SDS011;4394;51.208;8.904;2022-07-19T01:54:15;4.87;;;2.33;;
8714;SDS011;4394;51.208;8.904;2022-07-19T01:57:04;3.27;;;2.60;;
8714;SDS011;4394;51.208;8.904;2022-07-19T01:59:52;2.83;;;2.60;;
8714;SDS011;4394;51.208;8.904;2022-07-19T02:02:40;3.50;;;2.40;;
8714;SDS011;4394;51.208;8.904;2022-07-19T02:05:28;3.47;;;2.43;;
8714;SDS011;4394;51.208;8.904;2022-07-19T02:08:16;2.70;;;2.27;;
8714;SDS011;4394;51.208;8.904;2022-07-19T02:11:04;3.60;;;2.50;;
8714;SDS011;4394;51.208;8.904;2022-07-19T02:14:08;4.63;;;2.07;;
8714;SDS011;4394;51.208;8.904;2022-07-19T02:16:56;3.60;;;2.43;;
8714;SDS011;4394;51.208;8.904;2022-07-19T02:19:44;2.33;;;2.00;;
8714;SDS011;4394;51.208;8.904;2022-07-19T02:22:32;4.30;;;2.50;;
8714;SDS011;4394;51.208;8.904;2022-07-19T02:25:20;2.47;;;2.27;;
8714;SDS011;4394;51.208;8.904;2022-07-19T02:28:08;2.40;;;2.20;;
8714;SDS011;4394;51.208;8.904;2022-07-19T02:30:57;2.80;;;2.50;;
8714;SDS011;4394;51.208;8.904;2022-07-19T02:33:45;2.93;;;2.27;;
8714;SDS011;4394;51.208;8.904;2022-07-19T02:36:33;3.27;;;2.27;;
8714;SDS011;4394;51.208;8.904;2022-07-19T02:39:21;5.80;;;2.37;;
8714;SDS011;4394;51.208;8.904;2022-07-19T02:42:11;3.60;;;2.50;;
8714;SDS011;4394;51.208;8.904;2022-07-19T02:44:58;2.70;;;2.10;;
8714;SDS011;4394;51.208;8.904;2022-07-19T02:47:48;2.97;;;2.30;;
8714;SDS011;4394;51.208;8.904;2022-07-19T02:50:36;2.40;;;2.20;;
8714;SDS011;4394;51.208;8.904;2022-07-19T02:53:24;4.83;;;2.53;;
8714;SDS011;4394;51.208;8.904;2022-07-19T02:56:12;3.13;;;2.40;;
8714;SDS011;4394;51.208;8.904;2022-07-19T02:58:59;2.83;;;2.10;;
8714;SDS011;4394;51.208;8.904;2022-07-19T03:01:47;2.50;;;2.30;;
8714;SDS011;4394;51.208;8.904;2022-07-19T03:04:37;2.83;;;2.40;;
8714;SDS011;4394;51.208;8.904;2022-07-19T03:07:25;2.83;;;2.50;;
8714;SDS011;4394;51.208;8.904;2022-07-19T03:10:13;2.87;;;2.23;;
8714;SDS011;4394;51.208;8.904;2022-07-19T03:13:01;4.43;;;2.40;;
8714;SDS011;4394;51.208;8.904;2022-07-19T03:15:48;3.00;;;2.37;;
8714;SDS011;4394;51.208;8.904;2022-07-19T03:18:36;3.33;;;2.80;;
8714;SDS011;4394;51.208;8.904;2022-07-19T03:21:26;5.77;;;2.77;;
8714;SDS011;4394;51.208;8.904;2022-07-19T03:24:13;2.70;;;2.50;;
8714;SDS011;4394;51.208;8.904;2022-07-19T03:27:01;2.83;;;2.40;;
8714;SDS011;4394;51.208;8.904;2022-07-19T03:29:49;2.63;;;2.40;;
8714;SDS011;4394;51.208;8.904;2022-07-19T03:32:37;3.00;;;2.70;;
8714;SDS011;4394;51.208;8.904;2022-07-19T03:35:25;3.03;;;2.73;;
8714;SDS011;4394;51.208;8.904;2022-07-19T03:38:14;2.70;;;2.07;;
8714;SDS011;4394;51.208;8.904;2022-07-19T03:41:03;6.53;;;2.67;;
8714;SDS011;4394;51.208;8.904;2022-07-19T03:43:51;3.70;;;2.40;;
8714;SDS011;4394;51.208;8.904;2022-07-19T03:46:39;3.00;;;2.30;;
8714;SDS011;4394;51.208;8.904;2022-07-19T03:49:27;4.57;;;2.67;;
8714;SDS011;4394;51.208;8.904;2022-07-19T03:52:15;3.40;;;2.60;;
8714;SDS011;4394;51.208;8.904;2022-07-19T03:55:05;2.43;;;2.23;;
8714;SDS011;4394;51.208;8.904;2022-07-19T03:57:54;3.63;;;2.53;;
8714;SDS011;4394;51.208;8.904;2022-07-19T04:00:41;4.73;;;2.67;;
8714;SDS011;4394;51.208;8.904;2022-07-19T04:03:35;3.10;;;2.27;;
8714;SDS011;4394;51.208;8.904;2022-07-19T04:06:23;3.10;;;2.80;;
8714;SDS011;4394;51.208;8.904;2022-07-19T04:09:11;4.97;;;2.83;;
8714;SDS011;4394;51.208;8.904;2022-07-19T04:12:00;3.23;;;2.70;;
8714;SDS011;4394;51.208;8.904;2022-07-19T04:14:48;3.13;;;2.63;;
8714;SDS011;4394;51.208;8.904;2022-07-19T04:17:36;3.13;;;2.40;;
8714;SDS011;4394;51.208;8.904;2022-07-19T04:20:24;4.07;;;2.70;;
8714;SDS011;4394;51.208;8.904;2022-07-19T04:23:12;2.97;;;2.67;;
8714;SDS011;4394;51.208;8.904;2022-07-19T04:26:00;3.60;;;2.50;;
8714;SDS011;4394;51.208;8.904;2022-07-19T04:28:49;3.73;;;2.83;;
8714;SDS011;4394;51.208;8.904;2022-07-19T04:31:37;3.80;;;2.73;;
8714;SDS011;4394;51.208;8.904;2022-07-19T04:34:26;3.50;;;2.90;;
8714;SDS011;4394;51.208;8.904;2022-07-19T04:37:14;4.53;;;2.90;;
8714;SDS011;4394;51.208;8.904;2022-07-19T04:40:02;6.60;;;3.07;;
8714;SDS011;4394;51.208;8.904;2022-07-19T04:42:51;3.80;;;2.80;;
8714;SDS011;4394;51.208;8.904;2022-07-19T04:45:40;4.60;;;2.97;;
8714;SDS011;4394;51.208;8.904;2022-07-19T04:48:30;3.23;;;2.93;;
8714;SDS011;4394;51.208;8.904;2022-07-19T04:51:18;3.17;;;2.60;;
8714;SDS011;4394;51.208;8.904;2022-07-19T04:54:06;4.03;;;2.63;;
8714;SDS011;4394;51.208;8.904;2022-07-19T04:56:54;4.37;;;2.23;;
8714;SDS011;4394;51.208;8.904;2022-07-19T04:59:41;3.23;;;2.77;;
8714;SDS011;4394;51.208;8.904;2022-07-19T05:02:31;4.67;;;2.60;;
8714;SDS011;4394;51.208;8.904;2022-07-19T05:05:19;3.97;;;2.73;;
8714;SDS011;4394;51.208;8.904;2022-07-19T05:08:06;2.83;;;2.57;;
8714;SDS011;4394;51.208;8.904;2022-07-19T05:10:54;4.23;;;2.80;;
8714;SDS011;4394;51.208;8.904;2022-07-19T05:13:42;2.50;;;2.30;;
8714;SDS011;4394;51.208;8.904;2022-07-19T05:16:30;4.63;;;2.90;;
8714;SDS011;4394;51.208;8.904;2022-07-19T05:19:19;5.00;;;3.00;;
8714;SDS011;4394;51.208;8.904;2022-07-19T05:22:07;5.40;;;2.80;;
8714;SDS011;4394;51.208;8.904;2022-07-19T05:24:55;3.83;;;3.00;;
8714;SDS011;4394;51.208;8.904;2022-07-19T05:27:43;3.60;;;2.70;;
8714;SDS011;4394;51.208;8.904;2022-07-19T05:30:31;4.20;;;2.37;;
8714;SDS011;4394;51.208;8.904;2022-07-19T05:33:19;4.00;;;2.50;;
8714;SDS011;4394;51.208;8.904;2022-07-19T05:36:08;2.97;;;2.30;;
8714;SDS011;4394;51.208;8.904;2022-07-19T05:38:57;3.10;;;2.77;;
8714;SDS011;4394;51.208;8.904;2022-07-19T05:41:45;5.50;;;2.40;;
8714;SDS011;4394;51.208;8.904;2022-07-19T05:44:33;7.03;;;3.17;;
8714;SDS011;4394;51.208;8.904;2022-07-19T05:47:21;4.00;;;2.73;;
8714;SDS011;4394;51.208;8.904;2022-07-19T05:50:08;7.13;;;2.90;;
8714;SDS011;4394;51.208;8.904;2022-07-19T05:52:58;3.80;;;2.80;;
8714;SDS011;4394;51.208;8.904;2022-07-19T05:55:46;3.20;;;2.70;;
8714;SDS011;4394;51.208;8.904;2022-07-19T05:58:34;3.77;;;2.70;;
8714;SDS011;4394;51.208;8.904;2022-07-19T06:01:22;4.00;;;2.77;;
8714;SDS011;4394;51.208;8.904;2022-07-19T06:04:10;3.80;;;2.93;;
8714;SDS011;4394;51.208;8.904;2022-07-19T06:06:58;3.27;;;2.77;;
8714;SDS011;4394;51.208;8.904;2022-07-19T06:09:47;4.47;;;2.67;;
8714;SDS011;4394;51.208;8.904;2022-07-19T06:12:35;3.87;;;2.83;;
8714;SDS011;4394;51.208;8.904;2022-07-19T06:15:23;4.53;;;2.50;;
8714;SDS011;4394;51.208;8.904;2022-07-19T06:18:11;4.23;;;2.67;;
8714;SDS011;4394;51.208;8.904;2022-07-19T06:20:59;4.17;;;3.00;;
8714;SDS011;4394;51.208;8.904;2022-07-19T06:23:48;2.93;;;2.67;;
8714;SDS011;4394;51.208;8.904;2022-07-19T06:26:37;3.67;;;2.60;;
8714;SDS011;4394;51.208;8.904;2022-07-19T06:29:25;3.53;;;3.07;;
8714;SDS011;4394;51.208;8.904;2022-07-19T06:32:13;6.13;;;2.80;;
8714;SDS011;4394;51.208;8.904;2022-07-19T06:35:01;4.10;;;2.40;;
8714;SDS011;4394;51.208;8.904;2022-07-19T06:37:49;2.37;;;2.13;;
8714;SDS011;4394;51.208;8.904;2022-07-19T06:40:37;3.80;;;2.23;;
8714;SDS011;4394;51.208;8.904;2022-07-19T06:43:27;2.67;;;2.47;;
8714;SDS011;4394;51.208;8.904;2022-07-19T06:46:14;2.83;;;2.13;;
8714;SDS011;4394;51.208;8.904;2022-07-19T06:49:02;4.43;;;2.40;;
8714;SDS011;4394;51.208;8.904;2022-07-19T06:51:50;4.63;;;2.10;;
8714;SDS011;4394;51.208;8.904;2022-07-19T06:54:38;2.73;;;2.03;;
8714;SDS011;4394;51.208;8.904;2022-07-19T06:57:26;2.20;;;2.00;;
8714;SDS011;4394;51.208;8.904;2022-07-19T07:00:15;3.70;;;2.40;;
8714;SDS011;4394;51.208;8.904;2022-07-19T07:03:03;3.43;;;2.00;;
8714;SDS011;4394;51.208;8.904;2022-07-19T07:05:52;2.33;;;1.93;;
8714;SDS011;4394;51.208;8.904;2022-07-19T07:08:39;3.20;;;2.33;;
8714;SDS011;4394;51.208;8.904;2022-07-19T07:11:27;2.50;;;2.17;;
8714;SDS011;4394;51.208;8.904;2022-07-19T07:14:16;5.63;;;2.30;;
8714;SDS011;4394;51.208;8.904;2022-07-19T07:17:05;2.83;;;2.33;;
8714;SDS011;4394;51.208;8.904;2022-07-19T07:19:53;6.10;;;2.57;;
8714;SDS011;4394;51.208;8.904;2022-07-19T07:22:42;3.57;;;2.60;;
8714;SDS011;4394;51.208;8.904;2022-07-19T07:25:30;3.13;;;2.23;;
8714;SDS011;4394;51.208;8.904;2022-07-19T07:28:18;4.33;;;2.57;;
8714;SDS011;4394;51.208;8.904;2022-07-19T07:31:11;3.57;;;2.20;;
8714;SDS011;4394;51.208;8.904;2022-07-19T07:34:00;2.93;;;2.30;;
8714;SDS011;4394;51.208;8.904;2022-07-19T07:36:49;3.33;;;2.30;;
8714;SDS011;4394;51.208;8.904;2022-07-19T07:39:37;1.97;;;1.73;;
8714;SDS011;4394;51.208;8.904;2022-07-19T07:42:25;4.13;;;2.47;;
8714;SDS011;4394;51.208;8.904;2022-07-19T07:45:13;3.17;;;2.40;;
8714;SDS011;4394;51.208;8.904;2022-07-19T07:48:01;2.37;;;2.17;;
8714;SDS011;4394;51.208;8.904;2022-07-19T07:50:52;2.57;;;2.17;;
8714;SDS011;4394;51.208;8.904;2022-07-19T07:53:40;2.87;;;1.93;;
8714;SDS011;4394;51.208;8.904;2022-07-19T07:56:28;3.73;;;2.00;;
8714;SDS011;4394;51.208;8.904;2022-07-19T07:59:16;2.47;;;2.10;;
8714;SDS011;4394;51.208;8.904;2022-07-19T08:02:04;3.00;;;2.03;;
8714;SDS011;4394;51.208;8.904;2022-07-19T08:04:52;2.20;;;2.00;;
8714;SDS011;4394;51.208;8.904;2022-07-19T08:07:41;2.77;;;2.07;;
8714;SDS011;4394;51.208;8.904;2022-07-19T08:10:37;2.60;;;2.40;;
8714;SDS011;4394;51.208;8.904;2022-07-19T08:13:24;2.87;;;2.30;;
8714;SDS011;4394;51.208;8.904;2022-07-19T08:16:13;2.53;;;1.90;;
8714;SDS011;4394;51.208;8.904;2022-07-19T08:19:02;3.60;;;1.92;;
8714;SDS011;4394;51.208;8.904;2022-07-19T08:21:51;3.83;;;2.00;;
8714;SDS011;4394;51.208;8.904;2022-07-19T08:24:40;1.92;;;1.80;;
8714;SDS011;4394;51.208;8.904;2022-07-19T08:27:28;2.03;;;1.92;;
8714;SDS011;4394;51.208;8.904;2022-07-19T08:30:16;2.28;;;2.08;;
8714;SDS011;4394;51.208;8.904;2022-07-19T08:33:04;2.00;;;1.80;;
8714;SDS011;4394;51.208;8.904;2022-07-19T08:35:54;2.25;;;2.05;;
8714;SDS011;4394;51.208;8.904;2022-07-19T08:38:42;2.08;;;1.85;;
8714;SDS011;4394;51.208;8.904;2022-07-19T08:41:33;3.38;;;1.70;;
8714;SDS011;4394;51.208;8.904;2022-07-19T08:44:22;3.25;;;1.95;;
8714;SDS011;4394;51.208;8.904;2022-07-19T08:47:10;2.13;;;1.90;;
8714;SDS011;4394;51.208;8.904;2022-07-19T08:49:59;1.70;;;1.60;;
8714;SDS011;4394;51.208;8.904;2022-07-19T08:52:48;2.60;;;1.88;;
8714;SDS011;4394;51.208;8.904;2022-07-19T08:55:36;3.10;;;2.03;;
8714;SDS011;4394;51.208;8.904;2022-07-19T08:58:25;2.83;;;2.22;;
8714;SDS011;4394;51.208;8.904;2022-07-19T09:01:12;1.98;;;1.88;;
8714;SDS011;4394;51.208;8.904;2022-07-19T09:04:08;2.20;;;2.00;;
8714;SDS011;4394;51.208;8.904;2022-07-19T09:07:00;3.00;;;1.88;;
8714;SDS011;4394;51.208;8.904;2022-07-19T09:09:49;2.67;;;2.05;;
8714;SDS011;4394;51.208;8.904;2022-07-19T09:12:37;3.47;;;2.20;;
8714;SDS011;4394;51.208;8.904;2022-07-19T09:15:47;2.70;;;2.10;;
8714;SDS011;4394;51.208;8.904;2022-07-19T09:18:37;2.35;;;2.15;;
8714;SDS011;4394;51.208;8.904;2022-07-19T09:21:25;2.22;;;2.03;;
8714;SDS011;4394;51.208;8.904;2022-07-19T09:24:13;3.35;;;2.20;;
8714;SDS011;4394;51.208;8.904;2022-07-19T09:27:03;2.08;;;1.88;;
8714;SDS011;4394;51.208;8.904;2022-07-19T09:29:55;2.55;;;2.35;;
8714;SDS011;4394;51.208;8.904;2022-07-19T09:32:47;3.00;;;2.20;;
8714;SDS011;4394;51.208;8.904;2022-07-19T09:35:53;2.28;;;2.08;;
8714;SDS011;4394;51.208;8.904;2022-07-19T09:38:42;2.75;;;2.20;;
8714;SDS011;4394;51.208;8.904;2022-07-19T09:41:30;3.30;;;2.08;;
8714;SDS011;4394;51.208;8.904;2022-07-19T09:44:21;3.13;;;2.17;;
8714;SDS011;4394;51.208;8.904;2022-07-19T09:47:09;2.88;;;2.42;;
8714;SDS011;4394;51.208;8.904;2022-07-19T09:49:59;3.70;;;2.42;;
8714;SDS011;4394;51.208;8.904;2022-07-19T09:52:48;2.72;;;2.30;;
8714;SDS011;4394;51.208;8.904;2022-07-19T09:55:37;3.42;;;2.58;;
8714;SDS011;4394;51.208;8.904;2022-07-19T09:58:25;4.60;;;2.25;;
8714;SDS011;4394;51.208;8.904;2022-07-19T10:01:20;3.83;;;2.17;;
8714;SDS011;4394;51.208;8.904;2022-07-19T10:04:09;3.42;;;2.40;;
8714;SDS011;4394;51.208;8.904;2022-07-19T10:06:59;3.58;;;2.30;;
8714;SDS011;4394;51.208;8.904;2022-07-19T10:09:48;3.85;;;2.30;;
8714;SDS011;4394;51.208;8.904;2022-07-19T10:12:37;4.00;;;2.17;;
8714;SDS011;4394;51.208;8.904;2022-07-19T10:15:26;3.15;;;2.50;;
8714;SDS011;4394;51.208;8.904;2022-07-19T10:18:16;2.17;;;1.95;;
8714;SDS011;4394;51.208;8.904;2022-07-19T10:21:07;3.58;;;2.20;;
8714;SDS011;4394;51.208;8.904;2022-07-19T10:23:56;3.03;;;2.38;;
8714;SDS011;4394;51.208;8.904;2022-07-19T10:26:46;2.72;;;2.33;;
8714;SDS011;4394;51.208;8.904;2022-07-19T10:29:42;3.15;;;2.30;;
8714;SDS011;4394;51.208;8.904;2022-07-19T10:32:31;4.25;;;2.75;;
8714;SDS011;4394;51.208;8.904;2022-07-19T10:35:20;5.50;;;2.28;;
8714;SDS011;4394;51.208;8.904;2022-07-19T10:38:10;3.25;;;2.55;;
8714;SDS011;4394;51.208;8.904;2022-07-19T10:40:59;3.22;;;2.30;;
8714;SDS011;4394;51.208;8.904;2022-07-19T10:44:06;4.10;;;2.80;;
8714;SDS011;4394;51.208;8.904;2022-07-19T10:46:55;3.90;;;2.88;;
8714;SDS011;4394;51.208;8.904;2022-07-19T10:49:44;2.65;;;2.30;;
8714;SDS011;4394;51.208;8.904;2022-07-19T10:52:33;2.63;;;2.20;;
8714;SDS011;4394;51.208;8.904;2022-07-19T10:55:26;6.43;;;2.40;;
8714;SDS011;4394;51.208;8.904;2022-07-19T10:58:19;3.35;;;2.45;;
8714;SDS011;4394;51.208;8.904;2022-07-19T11:01:14;2.60;;;2.40;;
8714;SDS011;4394;51.208;8.904;2022-07-19T11:07:13;3.13;;;2.40;;
8714;SDS011;4394;51.208;8.904;2022-07-19T11:10:06;9.40;;;3.00;;
8714;SDS011;4394;51.208;8.904;2022-07-19T11:12:54;3.10;;;2.80;;
8714;SDS011;4394;51.208;8.904;2022-07-19T11:15:54;5.18;;;2.85;;
8714;SDS011;4394;51.208;8.904;2022-07-19T11:18:43;2.70;;;2.50;;
8714;SDS011;4394;51.208;8.904;2022-07-19T11:21:32;4.22;;;2.70;;
8714;SDS011;4394;51.208;8.904;2022-07-19T11:24:22;2.92;;;2.55;;
8714;SDS011;4394;51.208;8.904;2022-07-19T11:27:10;3.80;;;2.70;;
8714;SDS011;4394;51.208;8.904;2022-07-19T11:29:59;3.60;;;2.78;;
8714;SDS011;4394;51.208;8.904;2022-07-19T11:32:51;2.78;;;2.58;;
8714;SDS011;4394;51.208;8.904;2022-07-19T11:35:40;2.95;;;2.38;;
8714;SDS011;4394;51.208;8.904;2022-07-19T11:38:40;3.25;;;2.95;;
8714;SDS011;4394;51.208;8.904;2022-07-19T11:41:32;2.83;;;2.63;;
8714;SDS011;4394;51.208;8.904;2022-07-19T11:44:20;3.70;;;2.60;;
8714;SDS011;4394;51.208;8.904;2022-07-19T11:47:07;5.03;;;2.50;;
8714;SDS011;4394;51.208;8.904;2022-07-19T11:50:02;3.90;;;2.90;;
8714;SDS011;4394;51.208;8.904;2022-07-19T11:52:52;3.25;;;2.90;;
8714;SDS011;4394;51.208;8.904;2022-07-19T11:55:40;2.88;;;2.53;;
8714;SDS011;4394;51.208;8.904;2022-07-19T11:58:28;3.55;;;2.92;;
8714;SDS011;4394;51.208;8.904;2022-07-19T12:01:22;3.17;;;2.75;;
8714;SDS011;4394;51.208;8.904;2022-07-19T12:04:12;3.38;;;2.60;;
8714;SDS011;4394;51.208;8.904;2022-07-19T12:07:02;2.80;;;2.60;;
8714;SDS011;4394;51.208;8.904;2022-07-19T12:09:50;3.22;;;2.58;;
8714;SDS011;4394;51.208;8.904;2022-07-19T12:12:39;3.45;;;2.63;;
8714;SDS011;4394;51.208;8.904;2022-07-19T12:15:41;2.75;;;2.55;;
8714;SDS011;4394;51.208;8.904;2022-07-19T12:18:44;3.38;;;2.58;;
8714;SDS011;4394;51.208;8.904;2022-07-19T12:21:38;3.83;;;2.70;;
8714;SDS011;4394;51.208;8.904;2022-07-19T12:24:29;2.90;;;2.63;;
8714;SDS011;4394;51.208;8.904;2022-07-19T12:27:18;4.43;;;2.80;;
8714;SDS011;4394;51.208;8.904;2022-07-19T12:30:07;3.25;;;2.63;;
8714;SDS011;4394;51.208;8.904;2022-07-19T12:33:07;2.90;;;2.70;;
8714;SDS011;4394;51.208;8.904;2022-07-19T12:35:56;3.03;;;2.72;;
8714;SDS011;4394;51.208;8.904;2022-07-19T12:38:44;3.53;;;2.97;;
8714;SDS011;4394;51.208;8.904;2022-07-19T12:41:34;4.85;;;3.10;;
8714;SDS011;4394;51.208;8.904;2022-07-19T12:44:22;4.30;;;2.90;;
8714;SDS011;4394;51.208;8.904;2022-07-19T12:47:10;3.20;;;3.00;;
8714;SDS011;4394;51.208;8.904;2022-07-19T12:50:18;5.97;;;3.13;;
8714;SDS011;4394;51.208;8.904;2022-07-19T12:53:09;3.17;;;2.92;;
8714;SDS011;4394;51.208;8.904;2022-07-19T12:55:58;3.42;;;2.97;;
8714;SDS011;4394;51.208;8.904;2022-07-19T12:58:47;3.65;;;3.05;;
8714;SDS011;4394;51.208;8.904;2022-07-19T13:01:52;4.10;;;3.22;;
8714;SDS011;4394;51.208;8.904;2022-07-19T13:04:41;3.15;;;2.90;;
8714;SDS011;4394;51.208;8.904;2022-07-19T13:07:30;10.68;;;3.65;;
8714;SDS011;4394;51.208;8.904;2022-07-19T13:10:18;3.30;;;2.90;;
8714;SDS011;4394;51.208;8.904;2022-07-19T13:13:06;3.40;;;3.10;;
8714;SDS011;4394;51.208;8.904;2022-07-19T13:15:57;2.90;;;2.60;;
8714;SDS011;4394;51.208;8.904;2022-07-19T13:18:45;2.90;;;2.70;;
8714;SDS011;4394;51.208;8.904;2022-07-19T13:21:34;3.15;;;2.83;;
8714;SDS011;4394;51.208;8.904;2022-07-19T13:24:22;2.90;;;2.40;;
8714;SDS011;4394;51.208;8.904;2022-07-19T13:27:30;2.80;;;2.60;;
8714;SDS011;4394;51.208;8.904;2022-07-19T13:30:18;2.85;;;2.65;;
8714;SDS011;4394;51.208;8.904;2022-07-19T13:33:08;3.33;;;3.05;;
8714;SDS011;4394;51.208;8.904;2022-07-19T13:35:57;4.40;;;3.22;;
8714;SDS011;4394;51.208;8.904;2022-07-19T13:38:45;3.15;;;2.85;;
8714;SDS011;4394;51.208;8.904;2022-07-19T13:41:35;3.30;;;2.95;;
8714;SDS011;4394;51.208;8.904;2022-07-19T13:44:23;3.15;;;2.95;;
8714;SDS011;4394;51.208;8.904;2022-07-19T13:47:12;3.05;;;2.85;;
8714;SDS011;4394;51.208;8.904;2022-07-19T13:50:01;3.60;;;3.22;;
8714;SDS011;4394;51.208;8.904;2022-07-19T13:52:50;3.40;;;2.80;;
8714;SDS011;4394;51.208;8.904;2022-07-19T13:55:38;3.20;;;2.90;;
8714;SDS011;4394;51.208;8.904;2022-07-19T13:58:26;3.55;;;3.25;;
8714;SDS011;4394;51.208;8.904;2022-07-19T14:01:14;3.95;;;2.90;;
8714;SDS011;4394;51.208;8.904;2022-07-19T14:04:22;3.15;;;2.85;;
8714;SDS011;4394;51.208;8.904;2022-07-19T14:07:11;2.58;;;2.38;;
8714;SDS011;4394;51.208;8.904;2022-07-19T14:09:59;3.78;;;3.00;;
8714;SDS011;4394;51.208;8.904;2022-07-19T14:12:47;2.90;;;2.60;;
8714;SDS011;4394;51.208;8.904;2022-07-19T14:15:55;2.83;;;2.63;;
8714;SDS011;4394;51.208;8.904;2022-07-19T14:18:42;2.85;;;2.65;;
8714;SDS011;4394;51.208;8.904;2022-07-19T14:21:31;2.97;;;2.70;;
8714;SDS011;4394;51.208;8.904;2022-07-19T14:24:22;4.15;;;3.10;;
8714;SDS011;4394;51.208;8.904;2022-07-19T14:27:10;2.83;;;2.63;;
8714;SDS011;4394;51.208;8.904;2022-07-19T14:29:57;4.28;;;2.90;;
8714;SDS011;4394;51.208;8.904;2022-07-19T14:32:45;3.83;;;2.92;;
8714;SDS011;4394;51.208;8.904;2022-07-19T14:35:33;3.70;;;2.92;;
8714;SDS011;4394;51.208;8.904;2022-07-19T14:38:21;3.40;;;3.15;;
8714;SDS011;4394;51.208;8.904;2022-07-19T14:41:10;3.20;;;3.00;;
8714;SDS011;4394;51.208;8.904;2022-07-19T14:43:58;6.25;;;3.13;;
8714;SDS011;4394;51.208;8.904;2022-07-19T14:46:46;3.10;;;2.60;;
8714;SDS011;4394;51.208;8.904;2022-07-19T14:49:34;2.78;;;2.58;;
8714;SDS011;4394;51.208;8.904;2022-07-19T14:52:22;3.33;;;3.00;;
8714;SDS011;4394;51.208;8.904;2022-07-19T14:55:10;3.63;;;2.63;;
8714;SDS011;4394;51.208;8.904;2022-07-19T14:58:00;3.20;;;3.00;;
8714;SDS011;4394;51.208;8.904;2022-07-19T15:00:47;3.28;;;2.97;;
8714;SDS011;4394;51.208;8.904;2022-07-19T15:03:35;2.90;;;2.55;;
8714;SDS011;4394;51.208;8.904;2022-07-19T15:06:24;3.08;;;2.47;;
8714;SDS011;4394;51.208;8.904;2022-07-19T15:09:12;3.22;;;2.92;;
8714;SDS011;4394;51.208;8.904;2022-07-19T15:12:02;3.10;;;2.80;;
8714;SDS011;4394;51.208;8.904;2022-07-19T15:14:51;2.95;;;2.63;;
8714;SDS011;4394;51.208;8.904;2022-07-19T15:17:39;3.75;;;2.88;;
8714;SDS011;4394;51.208;8.904;2022-07-19T15:20:27;3.10;;;2.75;;
8714;SDS011;4394;51.208;8.904;2022-07-19T15:23:15;4.38;;;3.08;;
8714;SDS011;4394;51.208;8.904;2022-07-19T15:26:03;3.38;;;3.08;;
8714;SDS011;4394;51.208;8.904;2022-07-19T15:28:51;2.92;;;2.70;;
8714;SDS011;4394;51.208;8.904;2022-07-19T15:31:40;3.10;;;2.72;;
8714;SDS011;4394;51.208;8.904;2022-07-19T15:34:28;3.47;;;3.17;;
8714;SDS011;4394;51.208;8.904;2022-07-19T15:37:16;4.38;;;3.25;;
8714;SDS011;4394;51.208;8.904;2022-07-19T15:40:04;3.40;;;3.10;;
8714;SDS011;4394;51.208;8.904;2022-07-19T15:42:53;3.20;;;2.90;;
8714;SDS011;4394;51.208;8.904;2022-07-19T15:45:41;3.60;;;3.30;;
8714;SDS011;4394;51.208;8.904;2022-07-19T15:48:31;3.30;;;2.80;;
8714;SDS011;4394;51.208;8.904;2022-07-19T15:51:19;3.47;;;3.15;;
8714;SDS011;4394;51.208;8.904;2022-07-19T15:54:07;3.30;;;3.00;;
8714;SDS011;4394;51.208;8.904;2022-07-19T15:56:54;3.67;;;3.35;;
8714;SDS011;4394;51.208;8.904;2022-07-19T15:59:42;3.30;;;3.10;;
8714;SDS011;4394;51.208;8.904;2022-07-19T16:02:31;3.78;;;3.47;;
8714;SDS011;4394;51.208;8.904;2022-07-19T16:05:22;3.40;;;3.13;;
8714;SDS011;4394;51.208;8.904;2022-07-19T16:08:10;3.80;;;3.50;;
8714;SDS011;4394;51.208;8.904;2022-07-19T16:10:58;3.42;;;3.13;;
8714;SDS011;4394;51.208;8.904;2022-07-19T16:13:46;5.45;;;3.83;;
8714;SDS011;4394;51.208;8.904;2022-07-19T16:16:34;3.83;;;3.53;;
8714;SDS011;4394;51.208;8.904;2022-07-19T16:19:22;3.88;;;3.35;;
8714;SDS011;4394;51.208;8.904;2022-07-19T16:22:11;4.53;;;3.10;;
8714;SDS011;4394;51.208;8.904;2022-07-19T16:24:59;4.07;;;3.50;;
8714;SDS011;4394;51.208;8.904;2022-07-19T16:27:47;3.95;;;3.15;;
8714;SDS011;4394;51.208;8.904;2022-07-19T16:30:35;4.85;;;3.45;;
8714;SDS011;4394;51.208;8.904;2022-07-19T16:33:23;3.60;;;3.30;;
8714;SDS011;4394;51.208;8.904;2022-07-19T16:36:11;4.55;;;3.63;;
8714;SDS011;4394;51.208;8.904;2022-07-19T16:39:00;4.05;;;3.42;;
8714;SDS011;4394;51.208;8.904;2022-07-19T16:42:10;3.80;;;3.50;;
8714;SDS011;4394;51.208;8.904;2022-07-19T16:44:58;3.47;;;3.13;;
8714;SDS011;4394;51.208;8.904;2022-07-19T16:47:46;6.25;;;3.58;;
8714;SDS011;4394;51.208;8.904;2022-07-19T16:50:34;5.22;;;3.28;;
8714;SDS011;4394;51.208;8.904;2022-07-19T16:53:22;3.50;;;2.80;;
8714;SDS011;4394;51.208;8.904;2022-07-19T16:56:11;3.65;;;3.35;;
8714;SDS011;4394;51.208;8.904;2022-07-19T16:58:59;3.42;;;3.13;;
8714;SDS011;4394;51.208;8.904;2022-07-19T17:01:48;3.47;;;3.20;;
8714;SDS011;4394;51.208;8.904;2022-07-19T17:04:37;3.95;;;3.20;;
8714;SDS011;4394;51.208;8.904;2022-07-19T17:07:26;4.78;;;3.30;;
8714;SDS011;4394;51.208;8.904;2022-07-19T17:10:14;3.50;;;3.00;;
8714;SDS011;4394;51.208;8.904;2022-07-19T17:13:20;3.20;;;3.00;;
8714;SDS011;4394;51.208;8.904;2022-07-19T17:16:08;4.53;;;2.85;;
8714;SDS011;4394;51.208;8.904;2022-07-19T17:18:56;4.25;;;3.00;;
8714;SDS011;4394;51.208;8.904;2022-07-19T17:21:44;4.65;;;2.70;;
8714;SDS011;4394;51.208;8.904;2022-07-19T17:24:32;3.38;;;2.65;;
8714;SDS011;4394;51.208;8.904;2022-07-19T17:27:21;3.47;;;2.70;;
8714;SDS011;4394;51.208;8.904;2022-07-19T17:30:10;2.83;;;2.40;;
8714;SDS011;4394;51.208;8.904;2022-07-19T17:32:58;3.55;;;3.08;;
8714;SDS011;4394;51.208;8.904;2022-07-19T17:35:46;3.28;;;2.97;;